createdAt,value
2022-08-14T00:02:10.241Z,91.47
2022-08-14T00:05:20.073Z,91.58
2022-08-14T00:08:43.565Z,91.49
2022-08-14T00:11:51.384Z,91.93
2022-08-14T00:15:00.663Z,91.34
2022-08-14T00:18:14.531Z,90.90
2022-08-14T00:21:40.922Z,91.46
2022-08-14T00:24:46.801Z,91.19
2022-08-14T00:27:56.029Z,91.24
2022-08-14T00:31:03.024Z,91.52
2022-08-14T00:34:36.372Z,91.58
2022-08-14T00:37:43.612Z,91.21
2022-08-14T00:40:50.815Z,91.42
2022-08-14T00:44:00.739Z,91.11
2022-08-14T00:47:10.607Z,91.53
2022-08-14T00:50:22.551Z,91.15
2022-08-14T00:53:32.776Z,91.18
2022-08-14T00:56:40.071Z,91.40
2022-08-14T00:59:46.859Z,91.38
2022-08-14T01:02:57.015Z,91.65
2022-08-14T01:06:09.628Z,91.61
2022-08-14T01:09:15.694Z,91.62
2022-08-14T01:12:27.218Z,91.74
2022-08-14T01:15:58.690Z,91.42
2022-08-14T01:19:19.797Z,91.58
2022-08-14T01:22:29.645Z,91.68
2022-08-14T01:25:37.834Z,91.62
2022-08-14T01:28:56.782Z,91.20
2022-08-14T01:32:04.777Z,91.53
2022-08-14T01:36:03.025Z,91.57
2022-08-14T01:38:49.099Z,91.41
2022-08-14T01:41:58.079Z,91.25
2022-08-14T01:45:12.879Z,91.28
2022-08-14T01:48:33.386Z,91.31
2022-08-14T01:51:46.598Z,91.29
2022-08-14T01:54:58.435Z,91.28
2022-08-14T01:58:19.665Z,91.40
2022-08-14T02:01:26.971Z,91.48
2022-08-14T02:04:55.126Z,91.58
2022-08-14T02:08:22.613Z,91.54
2022-08-14T02:11:46.169Z,91.54
2022-08-14T02:15:00.458Z,91.55
2022-08-14T02:18:08.509Z,92.06
2022-08-14T02:21:19.522Z,92.22
2022-08-14T02:24:39.753Z,91.84
2022-08-14T02:28:22.426Z,91.95
2022-08-14T02:31:17.585Z,92.26
2022-08-14T02:34:32.350Z,92.32
2022-08-14T02:37:48.014Z,91.93
2022-08-14T02:40:54.479Z,92.11
2022-08-14T02:44:06.106Z,92.02
2022-08-14T02:47:14.946Z,92.15
2022-08-14T02:50:22.098Z,92.01
2022-08-14T02:53:33.609Z,91.84
2022-08-14T02:57:15.273Z,92.07
2022-08-14T03:00:18.807Z,92.18
2022-08-14T03:03:25.840Z,92.30
2022-08-14T03:06:35.251Z,92.10
2022-08-14T03:10:25.956Z,92.12
2022-08-14T03:13:24.661Z,92.25
2022-08-14T03:16:38.599Z,91.83
2022-08-14T03:19:45.172Z,91.98
2022-08-14T03:22:52.781Z,91.81
2022-08-14T03:25:58.971Z,91.46
2022-08-14T03:29:13.874Z,91.60
2022-08-14T03:32:27.369Z,91.84
2022-08-14T03:35:40.258Z,91.96
2022-08-14T03:39:13.080Z,92.19
2022-08-14T03:42:35.836Z,91.79
2022-08-14T03:45:48.719Z,91.73
2022-08-14T03:48:59.614Z,92.19
2022-08-14T03:52:37.644Z,91.72
2022-08-14T03:55:36.798Z,91.70
2022-08-14T03:58:45.589Z,91.64
2022-08-14T04:01:58.162Z,91.69
2022-08-14T04:05:14.661Z,91.72
2022-08-14T04:08:30.968Z,91.34
2022-08-14T04:11:39.065Z,90.88
2022-08-14T04:14:47.428Z,90.99
2022-08-14T04:17:55.082Z,90.86
2022-08-14T04:21:05.864Z,90.27
2022-08-14T04:24:14.093Z,91.05
2022-08-14T04:27:24.947Z,91.05
2022-08-14T04:30:32.890Z,90.87
2022-08-14T04:33:40.341Z,90.88
2022-08-14T04:37:07.237Z,91.17
2022-08-14T04:40:32.078Z,92.01
2022-08-14T04:43:41.032Z,91.02
2022-08-14T04:47:08.595Z,91.17
2022-08-14T04:50:13.792Z,91.50
2022-08-14T04:53:35.107Z,91.28
2022-08-14T04:56:42.702Z,91.40
2022-08-14T04:59:50.896Z,91.78
2022-08-14T05:02:57.429Z,91.69
2022-08-14T05:06:34.925Z,91.34
2022-08-14T05:09:36.566Z,91.87
2022-08-14T05:13:10.967Z,92.03
2022-08-14T05:16:19.042Z,91.87
2022-08-14T05:19:29.098Z,91.87
2022-08-14T05:22:35.719Z,91.86
2022-08-14T05:25:47.863Z,91.58
2022-08-14T05:28:58.516Z,91.11
2022-08-14T05:32:08.547Z,91.64
2022-08-14T05:35:14.744Z,91.86
2022-08-14T05:38:31.706Z,92.37
2022-08-14T05:41:53.164Z,92.02
2022-08-14T05:45:00.888Z,92.05
2022-08-14T05:48:09.767Z,91.93
2022-08-14T05:51:16.850Z,91.46
2022-08-14T05:54:26.999Z,91.89
2022-08-14T05:57:37.775Z,92.01
2022-08-14T06:00:49.463Z,91.94
2022-08-14T06:03:56.775Z,91.69
2022-08-14T06:07:03.143Z,91.72
2022-08-14T06:10:12.926Z,90.42
2022-08-14T06:13:31.787Z,90.69
2022-08-14T06:16:53.399Z,90.96
2022-08-14T06:20:00.988Z,91.02
2022-08-14T06:23:09.083Z,90.63
2022-08-14T06:26:14.991Z,90.25
2022-08-14T06:29:25.901Z,89.94
2022-08-14T06:32:39.468Z,89.46
2022-08-14T06:35:50.157Z,89.44
2022-08-14T06:38:56.574Z,89.95
2022-08-14T06:42:05.861Z,88.69
2022-08-14T06:45:15.960Z,88.99
2022-08-14T06:48:27.408Z,88.92
2022-08-14T06:51:39.047Z,87.85
2022-08-14T06:54:51.717Z,88.04
2022-08-14T06:57:58.514Z,87.60
2022-08-14T07:01:26.692Z,88.12
2022-08-14T07:04:49.000Z,86.29
2022-08-14T07:07:55.835Z,86.12
2022-08-14T07:11:04.220Z,87.31
2022-08-14T07:14:11.189Z,86.29
2022-08-14T07:17:23.099Z,85.55
2022-08-14T07:20:31.884Z,85.19
2022-08-14T07:23:40.029Z,85.17
2022-08-14T07:26:51.094Z,84.88
2022-08-14T07:29:57.226Z,84.62
2022-08-14T07:33:08.580Z,84.64
2022-08-14T07:36:27.748Z,84.84
2022-08-14T07:39:37.542Z,84.34
2022-08-14T07:42:44.924Z,84.52
2022-08-14T07:45:53.990Z,84.35
2022-08-14T07:49:03.330Z,85.00
2022-08-14T07:52:10.442Z,85.19
2022-08-14T07:55:21.209Z,84.86
2022-08-14T07:58:31.702Z,84.44
2022-08-14T08:01:48.208Z,84.54
2022-08-14T08:05:03.568Z,84.78
2022-08-14T08:08:27.168Z,83.01
2022-08-14T08:11:37.807Z,83.75
2022-08-14T08:14:56.037Z,84.88
2022-08-14T08:18:10.256Z,83.77
2022-08-14T08:21:36.122Z,84.06
2022-08-14T08:24:44.100Z,83.98
2022-08-14T08:28:08.758Z,83.37
2022-08-14T08:31:16.852Z,82.97
2022-08-14T08:34:24.533Z,83.72
2022-08-14T08:37:40.368Z,83.64
2022-08-14T08:40:51.475Z,84.28
2022-08-14T08:44:17.519Z,83.64
2022-08-14T08:47:42.063Z,83.33
2022-08-14T08:50:49.374Z,82.40
2022-08-14T08:54:06.693Z,82.07
2022-08-14T08:57:21.334Z,82.26
2022-08-14T09:00:28.418Z,81.70
2022-08-14T09:03:43.985Z,82.38
2022-08-14T09:07:09.445Z,82.63
2022-08-14T09:10:22.121Z,82.01
2022-08-14T09:13:30.692Z,81.85
2022-08-14T09:16:41.566Z,81.84
2022-08-14T09:19:52.879Z,82.56
2022-08-14T09:23:03.032Z,81.58
2022-08-14T09:26:21.236Z,80.54
2022-08-14T09:29:29.163Z,79.97
2022-08-14T09:33:09.287Z,78.68
2022-08-14T09:36:43.930Z,77.20
2022-08-14T09:40:03.722Z,76.45
2022-08-14T09:43:26.091Z,76.95
2022-08-14T09:46:33.404Z,76.72
2022-08-14T09:49:42.723Z,77.13
2022-08-14T09:52:54.875Z,76.44
2022-08-14T09:56:10.031Z,74.99
2022-08-14T09:59:22.637Z,73.44
2022-08-14T10:02:31.562Z,74.28
2022-08-14T10:05:41.042Z,74.74
2022-08-14T10:08:53.365Z,74.52
2022-08-14T10:12:04.759Z,74.94
2022-08-14T10:15:23.827Z,74.03
2022-08-14T10:18:31.836Z,74.31
2022-08-14T10:23:11.101Z,74.17
2022-08-14T10:25:15.591Z,73.66
2022-08-14T10:29:03.461Z,73.58
2022-08-14T10:32:00.875Z,73.68
2022-08-14T10:35:13.991Z,72.77
2022-08-14T10:38:32.067Z,72.26
2022-08-14T10:41:47.600Z,71.37
2022-08-14T10:44:55.169Z,70.43
2022-08-14T10:48:24.442Z,69.59
2022-08-14T10:51:44.116Z,69.01
2022-08-14T10:54:56.377Z,68.89
2022-08-14T10:58:03.042Z,67.89
2022-08-14T11:01:10.785Z,67.41
2022-08-14T11:04:30.531Z,66.39
2022-08-14T11:07:40.231Z,66.99
2022-08-14T11:10:52.854Z,66.38
2022-08-14T11:14:00.565Z,65.50
2022-08-14T11:17:07.898Z,65.80
2022-08-14T11:20:20.912Z,64.75
2022-08-14T11:23:38.088Z,64.21
2022-08-14T11:26:48.302Z,64.40
2022-08-14T11:30:00.660Z,64.29
2022-08-14T11:33:29.409Z,64.38
2022-08-14T11:37:09.612Z,64.00
2022-08-14T11:40:07.200Z,64.27
2022-08-14T11:43:13.375Z,63.34
2022-08-14T11:46:30.585Z,64.05
2022-08-14T11:49:43.568Z,63.17
2022-08-14T11:52:56.765Z,63.20
2022-08-14T11:56:11.001Z,62.86
2022-08-14T11:59:20.311Z,63.55
2022-08-14T12:03:00.343Z,63.04
2022-08-14T12:06:09.527Z,62.05
2022-08-14T12:09:42.809Z,63.37
2022-08-14T12:12:55.235Z,62.69
2022-08-14T12:16:06.621Z,62.29
2022-08-14T12:19:18.284Z,61.09
2022-08-14T12:22:37.128Z,60.66
2022-08-14T12:25:59.366Z,60.74
2022-08-14T12:29:16.395Z,59.87
2022-08-14T12:32:23.237Z,58.71
2022-08-14T12:35:39.930Z,58.92
2022-08-14T12:38:47.188Z,59.83
2022-08-14T12:42:06.619Z,59.78
2022-08-14T12:45:17.244Z,60.61
2022-08-14T12:48:32.166Z,58.83
2022-08-14T12:51:42.269Z,59.42
2022-08-14T12:54:57.457Z,58.46
2022-08-14T12:58:29.384Z,58.84
2022-08-14T13:01:59.540Z,58.73
2022-08-14T13:05:09.873Z,58.87
2022-08-14T13:08:33.052Z,58.77
2022-08-14T13:11:45.042Z,58.64
2022-08-14T13:14:55.306Z,58.32
2022-08-14T13:18:04.999Z,58.70
2022-08-14T13:21:15.019Z,58.94
2022-08-14T13:24:27.736Z,58.93
2022-08-14T13:27:39.424Z,57.55
2022-08-14T13:30:50.625Z,57.65
2022-08-14T13:34:01.174Z,57.49
2022-08-14T13:37:10.627Z,57.24
2022-08-14T13:40:22.066Z,57.03
2022-08-14T13:43:36.966Z,56.73
2022-08-14T13:46:58.759Z,56.62
2022-08-14T13:50:09.657Z,55.77
2022-08-14T13:53:17.765Z,56.85
2022-08-14T13:56:36.715Z,56.64
2022-08-14T13:59:47.890Z,57.08
2022-08-14T14:03:03.096Z,56.96
2022-08-14T14:06:10.574Z,57.00
2022-08-14T14:09:18.601Z,56.75
2022-08-14T14:12:38.475Z,56.39
2022-08-14T14:15:58.599Z,57.14
2022-08-14T14:19:08.838Z,56.38
2022-08-14T14:23:01.245Z,56.32
2022-08-14T14:25:51.130Z,56.01
2022-08-14T14:29:07.685Z,55.97
2022-08-14T14:32:21.275Z,55.59
2022-08-14T14:35:32.963Z,55.94
2022-08-14T14:38:45.307Z,55.07
2022-08-14T14:41:56.141Z,55.64
2022-08-14T14:45:07.877Z,56.28
2022-08-14T14:48:17.415Z,56.64
2022-08-14T14:51:28.156Z,56.51
2022-08-14T14:54:37.507Z,56.01
2022-08-14T14:57:44.584Z,55.75
2022-08-14T15:01:03.706Z,55.98
2022-08-14T15:04:20.950Z,55.30
2022-08-14T15:07:32.299Z,55.79
2022-08-14T15:10:40.529Z,55.84
2022-08-14T15:13:52.879Z,56.42
2022-08-14T15:17:00.456Z,56.02
2022-08-14T15:20:11.404Z,56.13
2022-08-14T15:23:32.325Z,56.08
2022-08-14T15:26:51.329Z,55.89
2022-08-14T15:29:58.008Z,56.00
2022-08-14T15:33:06.895Z,56.30
2022-08-14T15:36:16.692Z,55.78
2022-08-14T15:39:38.465Z,56.07
2022-08-14T15:42:48.448Z,54.68
2022-08-14T15:45:56.309Z,54.08
2022-08-14T15:49:03.690Z,53.08
2022-08-14T15:52:11.416Z,51.52
2022-08-14T15:55:23.082Z,49.94
2022-08-14T15:58:30.293Z,48.33
2022-08-14T16:01:53.496Z,47.74
2022-08-14T16:05:01.193Z,47.48
2022-08-14T16:08:27.480Z,46.31
2022-08-14T16:11:47.444Z,45.34
2022-08-14T16:14:59.794Z,45.63
2022-08-14T16:18:17.390Z,46.00
2022-08-14T16:21:25.525Z,46.06
2022-08-14T16:25:00.383Z,46.76
2022-08-14T16:28:07.354Z,48.02
2022-08-14T16:31:16.089Z,49.21
2022-08-14T16:34:44.007Z,48.69
2022-08-14T16:37:48.955Z,48.29
2022-08-14T16:41:16.774Z,48.40
2022-08-14T16:44:41.040Z,49.29
2022-08-14T16:47:50.703Z,49.87
2022-08-14T16:50:57.564Z,50.17
2022-08-14T16:54:21.040Z,50.78
2022-08-14T16:57:33.155Z,51.61
2022-08-14T17:00:45.276Z,52.83
2022-08-14T17:03:56.720Z,53.64
2022-08-14T17:07:04.317Z,54.31
2022-08-14T17:10:12.489Z,54.53
2022-08-14T17:13:47.473Z,55.48
2022-08-14T17:16:59.041Z,55.56
2022-08-14T17:20:08.843Z,55.51
2022-08-14T17:23:34.086Z,56.12
2022-08-14T17:26:46.689Z,56.63
2022-08-14T17:29:57.757Z,57.08
2022-08-14T17:33:15.839Z,57.52
2022-08-14T17:36:24.648Z,57.87
2022-08-14T17:39:40.026Z,57.94
2022-08-14T17:43:02.427Z,59.00
2022-08-14T17:46:09.592Z,58.78
2022-08-14T17:49:24.010Z,59.14
2022-08-14T17:52:35.914Z,59.51
2022-08-14T17:56:01.203Z,59.81
2022-08-14T17:59:09.920Z,60.38
2022-08-14T18:02:19.717Z,60.10
2022-08-14T18:06:07.400Z,60.46
2022-08-14T18:08:57.027Z,60.69
2022-08-14T18:12:05.461Z,60.83
2022-08-14T18:15:17.679Z,61.37
2022-08-14T18:18:24.874Z,61.63
2022-08-14T18:21:57.405Z,61.71
2022-08-14T18:25:18.071Z,62.30
2022-08-14T18:28:51.619Z,62.53
2022-08-14T18:31:56.567Z,62.67
2022-08-14T18:35:11.392Z,62.62
2022-08-14T18:38:46.238Z,62.60
2022-08-14T18:41:53.063Z,62.96
2022-08-14T18:45:15.350Z,62.81
2022-08-14T18:48:50.175Z,63.90
2022-08-14T18:52:18.526Z,64.31
2022-08-14T18:55:53.716Z,64.38
2022-08-14T18:59:00.580Z,64.15
2022-08-14T19:02:45.773Z,64.96
2022-08-14T19:06:03.038Z,64.88
2022-08-14T19:09:11.651Z,65.15
2022-08-14T19:13:00.594Z,65.90
2022-08-14T19:16:13.480Z,66.41
2022-08-14T19:19:19.562Z,66.07
2022-08-14T19:22:34.038Z,66.59
2022-08-14T19:26:36.375Z,67.00
2022-08-14T19:29:40.027Z,67.41
2022-08-14T19:32:50.737Z,67.49
2022-08-14T19:36:29.263Z,68.34
2022-08-14T19:39:53.784Z,68.75
2022-08-14T19:43:06.389Z,68.78
2022-08-14T19:46:38.005Z,69.32
2022-08-14T19:50:24.659Z,69.41
2022-08-14T19:53:17.533Z,69.85
2022-08-14T19:56:28.794Z,69.65
2022-08-14T19:59:57.363Z,70.06
2022-08-14T20:03:10.651Z,70.31
2022-08-14T20:06:18.082Z,70.07
2022-08-14T20:11:03.515Z,70.41
2022-08-14T20:13:00.111Z,70.47
2022-08-14T20:16:21.287Z,70.76
2022-08-14T20:19:41.544Z,71.02
2022-08-14T20:22:49.167Z,71.29
2022-08-14T20:26:02.991Z,71.42
2022-08-14T20:29:09.955Z,71.38
2022-08-14T20:32:21.664Z,71.53
2022-08-14T20:35:39.879Z,71.62
2022-08-14T20:38:50.489Z,71.74
2022-08-14T20:42:19.408Z,72.10
2022-08-14T20:45:25.390Z,72.17
2022-08-14T20:48:51.048Z,72.24
2022-08-14T20:52:20.091Z,72.36
2022-08-14T20:55:33.631Z,72.59
2022-08-14T20:58:44.242Z,72.88
2022-08-14T21:01:56.141Z,73.14
2022-08-14T21:05:16.781Z,73.40
2022-08-14T21:08:26.057Z,73.27
2022-08-14T21:11:33.411Z,73.57
2022-08-14T21:14:41.141Z,73.62
2022-08-14T21:18:00.359Z,73.85
2022-08-14T21:21:11.882Z,74.04
2022-08-14T21:24:38.941Z,73.97
2022-08-14T21:27:57.471Z,74.39
2022-08-14T21:31:06.190Z,74.52
2022-08-14T21:34:27.424Z,74.97
2022-08-14T21:37:44.051Z,74.79
2022-08-14T21:40:53.346Z,75.37
2022-08-14T21:44:17.652Z,75.37
2022-08-14T21:47:26.912Z,75.77
2022-08-14T21:50:56.447Z,76.17
2022-08-14T21:54:07.785Z,76.13
2022-08-14T21:57:56.090Z,76.23
2022-08-14T22:01:00.435Z,76.56
2022-08-14T22:04:32.815Z,76.72
2022-08-14T22:07:38.915Z,76.83
2022-08-14T22:10:51.602Z,76.64
2022-08-14T22:14:02.235Z,77.06
2022-08-14T22:17:25.235Z,77.01
2022-08-14T22:20:39.279Z,77.14
2022-08-14T22:23:48.703Z,77.20
2022-08-14T22:27:00.416Z,76.89
2022-08-14T22:30:12.510Z,77.22
2022-08-14T22:33:20.257Z,77.31
2022-08-14T22:36:56.727Z,77.55
2022-08-14T22:40:46.585Z,77.56
2022-08-14T22:43:34.890Z,77.76
2022-08-14T22:46:43.344Z,77.82
2022-08-14T22:50:29.526Z,78.03
2022-08-14T22:53:16.582Z,77.69
2022-08-14T22:56:30.318Z,77.67
2022-08-14T22:59:38.945Z,77.59
2022-08-14T23:02:46.934Z,77.62
2022-08-14T23:05:54.757Z,77.94
2022-08-14T23:09:35.478Z,77.87
2022-08-14T23:12:31.871Z,77.87
2022-08-14T23:15:40.926Z,78.05
2022-08-14T23:18:53.445Z,78.09
2022-08-14T23:22:01.029Z,78.06
2022-08-14T23:25:10.947Z,78.00
2022-08-14T23:28:34.762Z,78.01
2022-08-14T23:31:52.402Z,77.94
2022-08-14T23:34:58.872Z,78.34
2022-08-14T23:38:06.874Z,78.17
2022-08-14T23:41:47.081Z,78.32
2022-08-14T23:45:03.360Z,78.47
2022-08-14T23:48:13.778Z,78.58
2022-08-14T23:51:28.556Z,78.87
2022-08-14T23:54:48.646Z,78.68
2022-08-14T23:57:58.116Z,78.95
